sensor_id;sensor_type;location;lat;lon;timestamp;pressure;altitude;pressure_sealevel;temperature;humidity
6204;BME280;3135;42.602;23.468;2023-05-02T00:00:35;92935.03;;;9.01;100.00
6204;BME280;3135;42.602;23.468;2023-05-02T00:03:01;92926.31;;;8.90;100.00
6204;BME280;3135;42.602;23.468;2023-05-02T00:05:26;92938.00;;;8.99;100.00
6204;BME280;3135;42.602;23.468;2023-05-02T00:07:52;92956.00;;;9.12;100.00
6204;BME280;3135;42.602;23.468;2023-05-02T00:10:18;92941.13;;;9.06;100.00
6204;BME280;3135;42.602;23.468;2023-05-02T00:12:43;92942.75;;;9.02;100.00
6204;BME280;3135;42.602;23.468;2023-05-02T00:15:09;92937.78;;;8.90;100.00
6204;BME280;3135;42.602;23.468;2023-05-02T00:17:35;92936.19;;;8.89;100.00
6204;BME280;3135;42.602;23.468;2023-05-02T00:20:00;92944.84;;;9.10;100.00
6204;BME280;3135;42.602;23.468;2023-05-02T00:22:28;92929.75;;;8.95;100.00
6204;BME280;3135;42.602;23.468;2023-05-02T00:24:57;92938.84;;;8.89;100.00
6204;BME280;3135;42.602;23.468;2023-05-02T00:27:23;92940.16;;;8.92;100.00
6204;BME280;3135;42.602;23.468;2023-05-02T00:29:49;92940.16;;;8.92;100.00
6204;BME280;3135;42.602;23.468;2023-05-02T00:32:16;92953.97;;;8.99;100.00
6204;BME280;3135;42.602;23.468;2023-05-02T00:34:42;92944.63;;;9.02;100.00
6204;BME280;3135;42.602;23.468;2023-05-02T00:37:07;92948.69;;;8.94;100.00
6204;BME280;3135;42.602;23.468;2023-05-02T00:39:33;92950.81;;;8.92;100.00
6204;BME280;3135;42.602;23.468;2023-05-02T00:41:59;92963.56;;;9.00;100.00
6204;BME280;3135;42.602;23.468;2023-05-02T00:44:25;92957.25;;;8.86;100.00
6204;BME280;3135;42.602;23.468;2023-05-02T00:46:51;92972.66;;;8.94;100.00
6204;BME280;3135;42.602;23.468;2023-05-02T00:49:17;92966.25;;;8.95;100.00
6204;BME280;3135;42.602;23.468;2023-05-02T00:51:43;92960.16;;;8.84;100.00
6204;BME280;3135;42.602;23.468;2023-05-02T00:54:08;92976.41;;;8.88;100.00
6204;BME280;3135;42.602;23.468;2023-05-02T00:56:35;92960.81;;;8.56;100.00
6204;BME280;3135;42.602;23.468;2023-05-02T00:59:01;92957.91;;;8.57;100.00
6204;BME280;3135;42.602;23.468;2023-05-02T01:04:42;92951.00;;;8.56;100.00
6204;BME280;3135;42.602;23.468;2023-05-02T01:12:31;92968.59;;;8.47;100.00
6204;BME280;3135;42.602;23.468;2023-05-02T01:14:58;92952.38;;;8.38;100.00
6204;BME280;3135;42.602;23.468;2023-05-02T01:17:30;92956.34;;;8.41;100.00
6204;BME280;3135;42.602;23.468;2023-05-02T01:19:58;92953.13;;;8.49;100.00
6204;BME280;3135;42.602;23.468;2023-05-02T01:22:27;92958.19;;;8.51;100.00
6204;BME280;3135;42.602;23.468;2023-05-02T01:25:17;92957.66;;;8.49;100.00
6204;BME280;3135;42.602;23.468;2023-05-02T01:30:31;92945.16;;;8.44;100.00
6204;BME280;3135;42.602;23.468;2023-05-02T01:32:59;92931.09;;;8.28;100.00
6204;BME280;3135;42.602;23.468;2023-05-02T01:35:26;92928.66;;;8.32;100.00
6204;BME280;3135;42.602;23.468;2023-05-02T01:37:54;92902.66;;;8.08;100.00
6204;BME280;3135;42.602;23.468;2023-05-02T01:40:20;92929.22;;;8.39;100.00
6204;BME280;3135;42.602;23.468;2023-05-02T01:42:49;92955.78;;;8.54;100.00
6204;BME280;3135;42.602;23.468;2023-05-02T01:45:15;92950.44;;;8.54;100.00
6204;BME280;3135;42.602;23.468;2023-05-02T01:47:43;92949.41;;;8.50;100.00
6204;BME280;3135;42.602;23.468;2023-05-02T01:50:14;92925.50;;;8.25;100.00
6204;BME280;3135;42.602;23.468;2023-05-02T01:52:41;92965.38;;;8.50;100.00
6204;BME280;3135;42.602;23.468;2023-05-02T01:55:11;92944.38;;;8.43;100.00
6204;BME280;3135;42.602;23.468;2023-05-02T01:57:39;92965.63;;;8.59;100.00
6204;BME280;3135;42.602;23.468;2023-05-02T02:00:06;92924.16;;;8.42;100.00
6204;BME280;3135;42.602;23.468;2023-05-02T02:02:34;92958.38;;;8.69;100.00
6204;BME280;3135;42.602;23.468;2023-05-02T02:05:01;92946.25;;;8.38;100.00
6204;BME280;3135;42.602;23.468;2023-05-02T02:07:28;92950.22;;;8.40;100.00
6204;BME280;3135;42.602;23.468;2023-05-02T02:09:54;92950.50;;;8.44;100.00
6204;BME280;3135;42.602;23.468;2023-05-02T02:12:27;92948.09;;;8.48;100.00
6204;BME280;3135;42.602;23.468;2023-05-02T02:14:59;92946.69;;;8.60;100.00
6204;BME280;3135;42.602;23.468;2023-05-02T02:17:42;92956.53;;;8.65;100.00
6204;BME280;3135;42.602;23.468;2023-05-02T02:20:11;92943.56;;;8.43;100.00
6204;BME280;3135;42.602;23.468;2023-05-02T02:22:39;92945.16;;;8.44;100.00
6204;BME280;3135;42.602;23.468;2023-05-02T02:25:07;92943.06;;;8.26;100.00
6204;BME280;3135;42.602;23.468;2023-05-02T02:27:36;92955.81;;;8.44;100.00
6204;BME280;3135;42.602;23.468;2023-05-02T02:30:02;92945.19;;;8.34;100.00
6204;BME280;3135;42.602;23.468;2023-05-02T02:32:28;92928.41;;;8.23;100.00
6204;BME280;3135;42.602;23.468;2023-05-02T02:34:53;92961.91;;;8.50;100.00
6204;BME280;3135;42.602;23.468;2023-05-02T02:37:25;92944.13;;;8.25;100.00
6204;BME280;3135;42.602;23.468;2023-05-02T02:42:36;92954.81;;;8.19;100.00
6204;BME280;3135;42.602;23.468;2023-05-02T02:45:34;92956.34;;;8.31;100.00
6204;BME280;3135;42.602;23.468;2023-05-02T02:48:18;92960.34;;;8.33;100.00
6204;BME280;3135;42.602;23.468;2023-05-02T02:53:49;92943.59;;;8.23;100.00
6204;BME280;3135;42.602;23.468;2023-05-02T02:56:24;92929.81;;;8.05;100.00
6204;BME280;3135;42.602;23.468;2023-05-02T02:58:59;92956.16;;;8.02;100.00
6204;BME280;3135;42.602;23.468;2023-05-02T03:01:30;92950.09;;;7.86;100.00
6204;BME280;3135;42.602;23.468;2023-05-02T03:03:57;92953.22;;;7.98;100.00
6204;BME280;3135;42.602;23.468;2023-05-02T03:06:22;92962.28;;;7.97;100.00
6204;BME280;3135;42.602;23.468;2023-05-02T03:08:48;92961.50;;;7.86;100.00
6204;BME280;3135;42.602;23.468;2023-05-02T03:11:14;92950.06;;;7.91;100.00
6204;BME280;3135;42.602;23.468;2023-05-02T03:13:40;92957.53;;;7.79;100.00
6204;BME280;3135;42.602;23.468;2023-05-02T03:16:31;92973.44;;;7.99;100.00
6204;BME280;3135;42.602;23.468;2023-05-02T03:18:58;92950.09;;;7.86;100.00
6204;BME280;3135;42.602;23.468;2023-05-02T03:21:23;92964.69;;;7.88;100.00
6204;BME280;3135;42.602;23.468;2023-05-02T03:23:49;92970.28;;;7.92;100.00
6204;BME280;3135;42.602;23.468;2023-05-02T03:26:15;92976.69;;;7.91;100.00
6204;BME280;3135;42.602;23.468;2023-05-02T03:28:41;92984.91;;;8.05;100.00
6204;BME280;3135;42.602;23.468;2023-05-02T03:31:06;92983.84;;;8.01;100.00
6204;BME280;3135;42.602;23.468;2023-05-02T03:33:31;92987.56;;;8.00;100.00
6204;BME280;3135;42.602;23.468;2023-05-02T03:35:57;92992.63;;;7.96;100.00
6204;BME280;3135;42.602;23.468;2023-05-02T03:38:22;92986.78;;;8.09;100.00
6204;BME280;3135;42.602;23.468;2023-05-02T03:40:48;92967.06;;;7.95;100.00
6204;BME280;3135;42.602;23.468;2023-05-02T03:43:13;92976.66;;;7.96;100.00
6204;BME280;3135;42.602;23.468;2023-05-02T03:45:39;92980.38;;;7.95;100.00
6204;BME280;3135;42.602;23.468;2023-05-02T03:48:04;92979.56;;;7.94;100.00
6204;BME280;3135;42.602;23.468;2023-05-02T03:50:30;93001.66;;;8.10;100.00
6204;BME280;3135;42.602;23.468;2023-05-02T03:52:56;93002.44;;;8.16;100.00
6204;BME280;3135;42.602;23.468;2023-05-02T03:55:22;92996.84;;;8.17;100.00
6204;BME280;3135;42.602;23.468;2023-05-02T03:57:47;92993.66;;;8.20;100.00
6204;BME280;3135;42.602;23.468;2023-05-02T04:00:13;93009.63;;;8.20;100.00
6204;BME280;3135;42.602;23.468;2023-05-02T04:02:38;92996.03;;;8.27;100.00
6204;BME280;3135;42.602;23.468;2023-05-02T04:05:04;93000.56;;;8.27;100.00
6204;BME280;3135;42.602;23.468;2023-05-02T04:07:30;93005.34;;;8.30;100.00
6204;BME280;3135;42.602;23.468;2023-05-02T04:09:55;93000.53;;;8.32;100.00
6204;BME280;3135;42.602;23.468;2023-05-02T04:12:21;93002.69;;;8.35;100.00
6204;BME280;3135;42.602;23.468;2023-05-02T04:14:46;92978.75;;;8.25;100.00
6204;BME280;3135;42.602;23.468;2023-05-02T04:17:12;93010.09;;;8.63;100.00
6204;BME280;3135;42.602;23.468;2023-05-02T04:19:39;93004.00;;;8.53;100.00
6204;BME280;3135;42.602;23.468;2023-05-02T04:22:05;93011.72;;;8.54;100.00
6204;BME280;3135;42.602;23.468;2023-05-02T04:24:30;92989.59;;;8.54;100.00
6204;BME280;3135;42.602;23.468;2023-05-02T04:26:56;93005.56;;;8.64;100.00
6204;BME280;3135;42.602;23.468;2023-05-02T04:29:21;92983.47;;;8.58;100.00
6204;BME280;3135;42.602;23.468;2023-05-02T04:31:47;92992.00;;;8.50;100.00
6204;BME280;3135;42.602;23.468;2023-05-02T04:34:13;93011.66;;;8.69;100.00
6204;BME280;3135;42.602;23.468;2023-05-02T04:36:38;93006.31;;;8.69;100.00
6204;BME280;3135;42.602;23.468;2023-05-02T04:39:04;92998.66;;;8.58;100.00
6204;BME280;3135;42.602;23.468;2023-05-02T04:41:32;93002.59;;;8.65;100.00
6204;BME280;3135;42.602;23.468;2023-05-02T04:43:57;93007.38;;;8.74;100.00
6204;BME280;3135;42.602;23.468;2023-05-02T04:46:23;93007.84;;;8.91;100.00
6204;BME280;3135;42.602;23.468;2023-05-02T04:48:48;92995.06;;;8.88;100.00
6204;BME280;3135;42.602;23.468;2023-05-02T04:51:14;93015.56;;;8.92;100.00
6204;BME280;3135;42.602;23.468;2023-05-02T04:53:40;93020.81;;;9.13;100.00
6204;BME280;3135;42.602;23.468;2023-05-02T04:56:06;93029.59;;;9.18;100.00
6204;BME280;3135;42.602;23.468;2023-05-02T04:58:31;93012.25;;;9.16;100.00
6204;BME280;3135;42.602;23.468;2023-05-02T05:00:59;93013.84;;;9.17;100.00
6204;BME280;3135;42.602;23.468;2023-05-02T05:03:24;93027.91;;;9.33;100.00
6204;BME280;3135;42.602;23.468;2023-05-02T05:05:50;93008.44;;;9.32;100.00
6204;BME280;3135;42.602;23.468;2023-05-02T05:08:15;93035.78;;;9.53;100.00
6204;BME280;3135;42.602;23.468;2023-05-02T05:10:41;93025.03;;;9.63;100.00
6204;BME280;3135;42.602;23.468;2023-05-02T05:13:06;93021.94;;;9.51;100.00
6204;BME280;3135;42.602;23.468;2023-05-02T05:15:31;93019.31;;;9.46;100.00
6204;BME280;3135;42.602;23.468;2023-05-02T05:17:57;93028.78;;;9.62;100.00
6204;BME280;3135;42.602;23.468;2023-05-02T05:20:23;93023.97;;;9.69;100.00
6204;BME280;3135;42.602;23.468;2023-05-02T05:22:48;93040.09;;;9.88;100.00
6204;BME280;3135;42.602;23.468;2023-05-02T05:25:14;93025.66;;;9.89;100.00
6204;BME280;3135;42.602;23.468;2023-05-02T05:27:39;93035.22;;;9.95;100.00
6204;BME280;3135;42.602;23.468;2023-05-02T05:30:05;93022.38;;;10.03;100.00
6204;BME280;3135;42.602;23.468;2023-05-02T05:32:33;93036.66;;;10.17;100.00
6204;BME280;3135;42.602;23.468;2023-05-02T05:34:58;93032.63;;;10.19;100.00
6204;BME280;3135;42.602;23.468;2023-05-02T05:37:23;93014.50;;;10.16;100.00
6204;BME280;3135;42.602;23.468;2023-05-02T05:39:49;93051.78;;;10.32;100.00
6204;BME280;3135;42.602;23.468;2023-05-02T05:42:15;93037.91;;;10.30;100.00
6204;BME280;3135;42.602;23.468;2023-05-02T05:44:41;93032.16;;;10.46;100.00
6204;BME280;3135;42.602;23.468;2023-05-02T05:47:06;93032.47;;;10.69;100.00
6204;BME280;3135;42.602;23.468;2023-05-02T05:49:32;93039.44;;;10.65;100.00
6204;BME280;3135;42.602;23.468;2023-05-02T05:52:00;93026.69;;;10.81;100.00
6204;BME280;3135;42.602;23.468;2023-05-02T05:54:25;93025.13;;;10.80;100.00
6204;BME280;3135;42.602;23.468;2023-05-02T05:56:51;93033.84;;;11.09;100.00
6204;BME280;3135;42.602;23.468;2023-05-02T05:59:16;93024.50;;;11.31;100.00
6204;BME280;3135;42.602;23.468;2023-05-02T06:01:42;93045.16;;;11.68;100.00
6204;BME280;3135;42.602;23.468;2023-05-02T06:04:07;93065.84;;;11.81;99.86
6204;BME280;3135;42.602;23.468;2023-05-02T06:06:33;93049.13;;;11.70;99.01
6204;BME280;3135;42.602;23.468;2023-05-02T06:08:59;93065.88;;;12.00;97.03
6204;BME280;3135;42.602;23.468;2023-05-02T06:11:25;93046.09;;;11.96;97.54
6204;BME280;3135;42.602;23.468;2023-05-02T06:13:51;93069.41;;;12.14;94.11
6204;BME280;3135;42.602;23.468;2023-05-02T06:16:17;93055.06;;;12.24;94.42
6204;BME280;3135;42.602;23.468;2023-05-02T06:18:43;93053.34;;;12.47;90.93
6204;BME280;3135;42.602;23.468;2023-05-02T06:21:08;93062.59;;;12.68;90.69
6204;BME280;3135;42.602;23.468;2023-05-02T06:23:34;93064.00;;;12.66;89.40
6204;BME280;3135;42.602;23.468;2023-05-02T06:26:00;93063.50;;;12.77;88.60
6204;BME280;3135;42.602;23.468;2023-05-02T06:28:27;93055.69;;;12.95;88.25
6204;BME280;3135;42.602;23.468;2023-05-02T06:31:02;93062.75;;;13.18;87.53
6204;BME280;3135;42.602;23.468;2023-05-02T06:33:29;93051.94;;;13.51;86.63
6204;BME280;3135;42.602;23.468;2023-05-02T06:35:55;93047.81;;;13.12;83.61
6204;BME280;3135;42.602;23.468;2023-05-02T06:38:20;93067.06;;;13.33;81.54
6204;BME280;3135;42.602;23.468;2023-05-02T06:40:47;93062.25;;;13.44;82.69
6204;BME280;3135;42.602;23.468;2023-05-02T06:43:13;93074.59;;;13.45;78.65
6204;BME280;3135;42.602;23.468;2023-05-02T06:45:39;93063.84;;;13.45;79.61
6204;BME280;3135;42.602;23.468;2023-05-02T06:48:05;93056.78;;;13.63;78.80
6204;BME280;3135;42.602;23.468;2023-05-02T06:50:31;93056.97;;;14.02;75.61
6204;BME280;3135;42.602;23.468;2023-05-02T06:52:57;93058.22;;;13.82;76.84
6204;BME280;3135;42.602;23.468;2023-05-02T06:55:22;93057.78;;;14.03;75.59
6204;BME280;3135;42.602;23.468;2023-05-02T06:57:48;93063.03;;;14.08;75.91
6204;BME280;3135;42.602;23.468;2023-05-02T07:00:16;93064.00;;;14.35;71.55
6204;BME280;3135;42.602;23.468;2023-05-02T07:02:42;93073.53;;;14.54;71.24
6204;BME280;3135;42.602;23.468;2023-05-02T07:05:08;93004.56;;;13.91;70.25
6204;BME280;3135;42.602;23.468;2023-05-02T07:07:33;93061.09;;;14.22;71.28
6204;BME280;3135;42.602;23.468;2023-05-02T07:09:59;93060.63;;;14.65;69.97
6204;BME280;3135;42.602;23.468;2023-05-02T07:12:25;93065.59;;;14.49;68.17
6204;BME280;3135;42.602;23.468;2023-05-02T07:14:51;93061.34;;;14.57;67.05
6204;BME280;3135;42.602;23.468;2023-05-02T07:17:16;93063.97;;;14.48;68.17
6204;BME280;3135;42.602;23.468;2023-05-02T07:19:42;93063.53;;;14.32;67.57
6204;BME280;3135;42.602;23.468;2023-05-02T07:22:07;93063.06;;;14.30;68.09
6204;BME280;3135;42.602;23.468;2023-05-02T07:24:33;93065.97;;;14.88;68.00
6204;BME280;3135;42.602;23.468;2023-05-02T07:26:58;93056.47;;;14.90;68.21
6204;BME280;3135;42.602;23.468;2023-05-02T07:29:24;93063.78;;;15.29;66.93
6204;BME280;3135;42.602;23.468;2023-05-02T07:31:50;93061.28;;;15.02;65.23
6204;BME280;3135;42.602;23.468;2023-05-02T07:34:15;93072.69;;;15.39;64.97
6204;BME280;3135;42.602;23.468;2023-05-02T07:36:41;93062.06;;;15.02;68.31
6204;BME280;3135;42.602;23.468;2023-05-02T07:39:06;93070.34;;;15.15;64.95
6204;BME280;3135;42.602;23.468;2023-05-02T07:41:32;93057.97;;;15.45;64.28
6204;BME280;3135;42.602;23.468;2023-05-02T07:43:57;93071.28;;;15.50;63.01
6204;BME280;3135;42.602;23.468;2023-05-02T07:46:23;93074.19;;;15.62;61.95
6204;BME280;3135;42.602;23.468;2023-05-02T07:48:49;93060.19;;;15.51;61.44
6204;BME280;3135;42.602;23.468;2023-05-02T07:51:14;93073.00;;;15.86;59.67
6204;BME280;3135;42.602;23.468;2023-05-02T07:53:40;93082.81;;;15.99;60.51
6204;BME280;3135;42.602;23.468;2023-05-02T07:56:06;93076.81;;;16.36;58.07
6204;BME280;3135;42.602;23.468;2023-05-02T07:58:33;93061.72;;;16.61;62.75
6204;BME280;3135;42.602;23.468;2023-05-02T08:00:59;93074.91;;;16.72;55.94
6204;BME280;3135;42.602;23.468;2023-05-02T08:03:25;93065.69;;;16.64;55.32
6204;BME280;3135;42.602;23.468;2023-05-02T08:05:51;93070.63;;;16.10;57.44
6204;BME280;3135;42.602;23.468;2023-05-02T08:08:17;93067.28;;;16.13;57.28
6204;BME280;3135;42.602;23.468;2023-05-02T08:10:42;93074.09;;;16.54;58.00
6204;BME280;3135;42.602;23.468;2023-05-02T08:13:08;93073.16;;;16.41;56.60
6204;BME280;3135;42.602;23.468;2023-05-02T08:15:34;93077.59;;;16.46;54.42
6204;BME280;3135;42.602;23.468;2023-05-02T08:17:59;93068.38;;;16.64;54.79
6204;BME280;3135;42.602;23.468;2023-05-02T08:20:25;93064.44;;;16.61;52.77
6204;BME280;3135;42.602;23.468;2023-05-02T08:22:50;93080.25;;;16.98;53.09
6204;BME280;3135;42.602;23.468;2023-05-02T08:25:16;93057.00;;;16.24;54.11
6204;BME280;3135;42.602;23.468;2023-05-02T08:27:41;93071.09;;;16.81;53.57
6204;BME280;3135;42.602;23.468;2023-05-02T08:30:07;93061.84;;;17.00;53.16
6204;BME280;3135;42.602;23.468;2023-05-02T08:32:32;93085.97;;;16.96;52.97
6204;BME280;3135;42.602;23.468;2023-05-02T08:34:58;93064.19;;;17.01;53.54
6204;BME280;3135;42.602;23.468;2023-05-02T08:37:23;93085.03;;;16.83;51.98
6204;BME280;3135;42.602;23.468;2023-05-02T08:39:48;93073.19;;;17.23;53.61
6204;BME280;3135;42.602;23.468;2023-05-02T08:42:14;93066.25;;;17.13;51.03
6204;BME280;3135;42.602;23.468;2023-05-02T08:44:39;93084.19;;;17.18;50.64
6204;BME280;3135;42.602;23.468;2023-05-02T08:47:05;93074.19;;;17.48;52.80
6204;BME280;3135;42.602;23.468;2023-05-02T08:49:33;93077.28;;;17.29;49.41
6204;BME280;3135;42.602;23.468;2023-05-02T08:52:00;93068.84;;;17.39;49.66
6204;BME280;3135;42.602;23.468;2023-05-02T08:54:26;93072.09;;;17.15;47.90
6204;BME280;3135;42.602;23.468;2023-05-02T08:56:53;93065.09;;;17.23;49.91
6204;BME280;3135;42.602;23.468;2023-05-02T08:59:19;93075.41;;;17.59;48.65
6204;BME280;3135;42.602;23.468;2023-05-02T09:01:48;93081.22;;;17.78;47.99
6204;BME280;3135;42.602;23.468;2023-05-02T09:04:13;93063.56;;;18.02;48.55
6204;BME280;3135;42.602;23.468;2023-05-02T09:06:39;93076.00;;;18.24;45.83
6204;BME280;3135;42.602;23.468;2023-05-02T09:09:05;93074.69;;;18.51;46.02
6204;BME280;3135;42.602;23.468;2023-05-02T09:11:31;93060.34;;;18.29;46.77
6204;BME280;3135;42.602;23.468;2023-05-02T09:13:56;93049.19;;;18.52;44.78
6204;BME280;3135;42.602;23.468;2023-05-02T09:16:28;93055.66;;;18.80;43.57
6204;BME280;3135;42.602;23.468;2023-05-02T09:18:56;93067.34;;;18.72;44.71
6204;BME280;3135;42.602;23.468;2023-05-02T09:21:23;93066.78;;;18.46;44.83
6204;BME280;3135;42.602;23.468;2023-05-02T09:23:53;93049.59;;;18.00;45.08
6204;BME280;3135;42.602;23.468;2023-05-02T09:28:55;93063.09;;;17.79;45.08
6204;BME280;3135;42.602;23.468;2023-05-02T09:31:22;93044.63;;;17.81;44.91
6204;BME280;3135;42.602;23.468;2023-05-02T09:33:50;93053.44;;;18.20;44.80
6204;BME280;3135;42.602;23.468;2023-05-02T09:36:17;93054.91;;;18.92;45.10
6204;BME280;3135;42.602;23.468;2023-05-02T09:38:45;93053.16;;;18.75;42.89
6204;BME280;3135;42.602;23.468;2023-05-02T09:41:11;93055.44;;;18.85;42.82
6204;BME280;3135;42.602;23.468;2023-05-02T09:43:37;93039.72;;;19.12;42.59
6204;BME280;3135;42.602;23.468;2023-05-02T09:46:05;93034.31;;;19.36;43.89
6204;BME280;3135;42.602;23.468;2023-05-02T09:51:19;93045.78;;;19.09;41.57
6204;BME280;3135;42.602;23.468;2023-05-02T09:53:45;93020.66;;;18.75;41.71
6204;BME280;3135;42.602;23.468;2023-05-02T09:56:10;93042.59;;;18.95;41.53
6204;BME280;3135;42.602;23.468;2023-05-02T09:58:36;93032.47;;;19.04;40.69
6204;BME280;3135;42.602;23.468;2023-05-02T10:01:01;93038.59;;;19.25;41.17
6204;BME280;3135;42.602;23.468;2023-05-02T10:03:27;93027.19;;;19.56;41.06
6204;BME280;3135;42.602;23.468;2023-05-02T10:05:54;93036.22;;;20.09;39.32
6204;BME280;3135;42.602;23.468;2023-05-02T10:08:23;93018.53;;;19.75;39.97
6204;BME280;3135;42.602;23.468;2023-05-02T10:10:52;93042.19;;;19.17;40.46
6204;BME280;3135;42.602;23.468;2023-05-02T10:13:20;93028.31;;;19.43;41.44
6204;BME280;3135;42.602;23.468;2023-05-02T10:15:50;93021.94;;;19.72;40.47
6204;BME280;3135;42.602;23.468;2023-05-02T10:18:26;93008.91;;;19.41;40.45
6204;BME280;3135;42.602;23.468;2023-05-02T10:21:02;93035.94;;;18.92;41.40
6204;BME280;3135;42.602;23.468;2023-05-02T10:23:30;93018.13;;;19.03;41.16
6204;BME280;3135;42.602;23.468;2023-05-02T10:25:58;93000.53;;;19.95;40.51
6204;BME280;3135;42.602;23.468;2023-05-02T10:28:25;93008.75;;;20.51;40.08
6204;BME280;3135;42.602;23.468;2023-05-02T10:30:52;92998.25;;;20.50;38.18
6204;BME280;3135;42.602;23.468;2023-05-02T10:33:20;93010.34;;;20.80;38.76
6204;BME280;3135;42.602;23.468;2023-05-02T10:35:45;93003.19;;;20.20;38.57
6204;BME280;3135;42.602;23.468;2023-05-02T10:38:13;93004.50;;;20.26;38.91
6204;BME280;3135;42.602;23.468;2023-05-02T10:40:41;93009.09;;;20.09;38.76
6204;BME280;3135;42.602;23.468;2023-05-02T10:43:07;93002.56;;;20.38;38.93
6204;BME280;3135;42.602;23.468;2023-05-02T10:45:35;92983.19;;;20.52;38.08
6204;BME280;3135;42.602;23.468;2023-05-02T10:48:14;93007.53;;;20.92;36.65
6204;BME280;3135;42.602;23.468;2023-05-02T10:50:44;92993.56;;;20.78;37.78
6204;BME280;3135;42.602;23.468;2023-05-02T10:56:20;92994.91;;;20.28;38.75
6204;BME280;3135;42.602;23.468;2023-05-02T10:58:47;92986.16;;;20.35;39.21
6204;BME280;3135;42.602;23.468;2023-05-02T11:03:59;92976.53;;;20.50;38.66
6204;BME280;3135;42.602;23.468;2023-05-02T11:06:26;92982.31;;;20.36;38.61
6204;BME280;3135;42.602;23.468;2023-05-02T11:08:52;92984.97;;;20.20;39.51
6204;BME280;3135;42.602;23.468;2023-05-02T11:11:46;93002.06;;;20.21;38.71
6204;BME280;3135;42.602;23.468;2023-05-02T11:24:49;92983.28;;;19.26;40.79
6204;BME280;3135;42.602;23.468;2023-05-02T11:30:03;92988.47;;;19.56;40.36
6204;BME280;3135;42.602;23.468;2023-05-02T11:35:22;92966.72;;;20.05;40.52
6204;BME280;3135;42.602;23.468;2023-05-02T11:38:08;92981.13;;;20.21;39.71
6204;BME280;3135;42.602;23.468;2023-05-02T11:40:34;92977.53;;;20.45;38.98
6204;BME280;3135;42.602;23.468;2023-05-02T11:43:00;92968.75;;;20.36;38.62
6204;BME280;3135;42.602;23.468;2023-05-02T11:45:36;92962.47;;;19.91;39.58
6204;BME280;3135;42.602;23.468;2023-05-02T11:48:06;92972.19;;;19.56;40.02
6204;BME280;3135;42.602;23.468;2023-05-02T11:50:33;92964.34;;;20.03;40.08
6204;BME280;3135;42.602;23.468;2023-05-02T11:52:59;92957.00;;;20.60;39.70
6204;BME280;3135;42.602;23.468;2023-05-02T11:55:25;92945.09;;;19.68;40.00
6204;BME280;3135;42.602;23.468;2023-05-02T11:57:50;92949.84;;;20.39;39.55
6204;BME280;3135;42.602;23.468;2023-05-02T12:00:16;92944.28;;;20.20;38.16
6204;BME280;3135;42.602;23.468;2023-05-02T12:02:44;92953.00;;;20.13;37.36
6204;BME280;3135;42.602;23.468;2023-05-02T12:05:11;92949.00;;;19.95;39.08
6204;BME280;3135;42.602;23.468;2023-05-02T12:07:37;92952.72;;;20.31;38.12
6204;BME280;3135;42.602;23.468;2023-05-02T12:10:03;92951.31;;;20.37;38.29
6204;BME280;3135;42.602;23.468;2023-05-02T12:12:29;92950.97;;;19.70;38.07
6204;BME280;3135;42.602;23.468;2023-05-02T12:14:54;92942.44;;;19.96;38.40
6204;BME280;3135;42.602;23.468;2023-05-02T12:17:20;92940.41;;;20.21;37.31
6204;BME280;3135;42.602;23.468;2023-05-02T12:19:47;92936.31;;;19.99;37.70
6204;BME280;3135;42.602;23.468;2023-05-02T12:22:13;92937.41;;;20.66;37.90
6204;BME280;3135;42.602;23.468;2023-05-02T12:24:40;92950.50;;;20.49;37.40
6204;BME280;3135;42.602;23.468;2023-05-02T12:27:12;92935.44;;;19.95;38.08
6204;BME280;3135;42.602;23.468;2023-05-02T12:29:46;92939.66;;;20.08;37.52
6204;BME280;3135;42.602;23.468;2023-05-02T12:32:12;92924.19;;;20.09;38.24
6204;BME280;3135;42.602;23.468;2023-05-02T12:34:39;92927.88;;;20.45;36.82
6204;BME280;3135;42.602;23.468;2023-05-02T12:37:06;92939.41;;;20.41;36.72
6204;BME280;3135;42.602;23.468;2023-05-02T12:39:37;92918.88;;;19.72;37.21
6204;BME280;3135;42.602;23.468;2023-05-02T12:44:36;92924.19;;;20.09;37.04
6204;BME280;3135;42.602;23.468;2023-05-02T12:47:03;92892.44;;;19.81;36.22
6204;BME280;3135;42.602;23.468;2023-05-02T12:49:28;92916.66;;;19.62;37.02
6204;BME280;3135;42.602;23.468;2023-05-02T12:51:54;92926.69;;;19.49;37.41
6204;BME280;3135;42.602;23.468;2023-05-02T12:54:23;92921.84;;;19.42;37.63
6204;BME280;3135;42.602;23.468;2023-05-02T12:56:50;92908.88;;;19.24;37.29
6204;BME280;3135;42.602;23.468;2023-05-02T12:59:29;92912.53;;;19.80;37.35
6204;BME280;3135;42.602;23.468;2023-05-02T13:01:55;92915.25;;;19.56;36.67
6204;BME280;3135;42.602;23.468;2023-05-02T13:04:32;92905.81;;;19.62;36.53
6204;BME280;3135;42.602;23.468;2023-05-02T13:06:57;92888.19;;;19.44;35.89
6204;BME280;3135;42.602;23.468;2023-05-02T13:09:23;92890.53;;;19.70;36.36
6204;BME280;3135;42.602;23.468;2023-05-02T13:11:48;92910.88;;;19.63;36.74
6204;BME280;3135;42.602;23.468;2023-05-02T13:14:14;92894.09;;;19.09;38.49
6204;BME280;3135;42.602;23.468;2023-05-02T13:16:39;92903.53;;;19.64;38.56
6204;BME280;3135;42.602;23.468;2023-05-02T13:19:05;92896.56;;;19.38;37.25
6204;BME280;3135;42.602;23.468;2023-05-02T13:21:30;92907.38;;;19.63;37.25
6204;BME280;3135;42.602;23.468;2023-05-02T13:23:56;92903.47;;;19.88;35.63
6204;BME280;3135;42.602;23.468;2023-05-02T13:26:23;92905.69;;;19.58;35.42
6204;BME280;3135;42.602;23.468;2023-05-02T13:28:48;92895.00;;;19.13;36.12
6204;BME280;3135;42.602;23.468;2023-05-02T13:31:14;92893.56;;;19.56;36.14
6204;BME280;3135;42.602;23.468;2023-05-02T13:33:39;92885.41;;;20.08;35.99
6204;BME280;3135;42.602;23.468;2023-05-02T13:36:05;92895.59;;;19.71;35.20
6204;BME280;3135;42.602;23.468;2023-05-02T13:38:30;92888.34;;;19.23;36.10
6204;BME280;3135;42.602;23.468;2023-05-02T13:40:56;92879.06;;;19.24;36.18
6204;BME280;3135;42.602;23.468;2023-05-02T13:43:22;92898.03;;;19.36;36.35
6204;BME280;3135;42.602;23.468;2023-05-02T13:45:48;92886.50;;;19.39;36.89
6204;BME280;3135;42.602;23.468;2023-05-02T13:48:13;92896.25;;;19.80;35.90
6204;BME280;3135;42.602;23.468;2023-05-02T13:50:40;92895.50;;;19.55;35.02
6204;BME280;3135;42.602;23.468;2023-05-02T13:53:05;92887.66;;;19.26;35.59
6204;BME280;3135;42.602;23.468;2023-05-02T13:55:30;92874.25;;;18.93;35.76